sensor_id;sensor_type;location;lat;lon;timestamp;P1;durP1;ratioP1;P2;durP2;ratioP2
21843;SDS011;11084;52.482;9.108;2023-02-07T00:01:21;8.53;;;4.57;;
21843;SDS011;11084;52.482;9.108;2023-02-07T00:03:49;8.00;;;4.43;;
21843;SDS011;11084;52.482;9.108;2023-02-07T00:06:20;8.33;;;4.80;;
21843;SDS011;11084;52.482;9.108;2023-02-07T00:08:54;9.93;;;5.13;;
21843;SDS011;11084;52.482;9.108;2023-02-07T00:11:21;7.30;;;4.47;;
21843;SDS011;11084;52.482;9.108;2023-02-07T00:13:49;7.80;;;5.57;;
21843;SDS011;11084;52.482;9.108;2023-02-07T00:16:17;7.27;;;4.07;;
21843;SDS011;11084;52.482;9.108;2023-02-07T00:18:45;8.10;;;4.30;;
21843;SDS011;11084;52.482;9.108;2023-02-07T00:21:13;11.10;;;5.20;;
21843;SDS011;11084;52.482;9.108;2023-02-07T00:23:49;10.03;;;4.97;;
21843;SDS011;11084;52.482;9.108;2023-02-07T00:26:17;9.57;;;4.70;;
21843;SDS011;11084;52.482;9.108;2023-02-07T00:28:46;7.47;;;4.73;;
21843;SDS011;11084;52.482;9.108;2023-02-07T00:31:22;15.23;;;4.87;;
21843;SDS011;11084;52.482;9.108;2023-02-07T00:33:53;8.97;;;4.70;;
21843;SDS011;11084;52.482;9.108;2023-02-07T00:36:25;9.07;;;5.43;;
21843;SDS011;11084;52.482;9.108;2023-02-07T00:38:55;8.73;;;4.70;;
21843;SDS011;11084;52.482;9.108;2023-02-07T00:41:23;11.10;;;5.43;;
21843;SDS011;11084;52.482;9.108;2023-02-07T00:43:51;6.70;;;4.10;;
21843;SDS011;11084;52.482;9.108;2023-02-07T00:46:17;10.10;;;5.23;;
21843;SDS011;11084;52.482;9.108;2023-02-07T00:48:44;9.43;;;4.63;;
21843;SDS011;11084;52.482;9.108;2023-02-07T00:51:11;10.07;;;5.10;;
21843;SDS011;11084;52.482;9.108;2023-02-07T00:53:39;9.03;;;4.90;;
21843;SDS011;11084;52.482;9.108;2023-02-07T00:56:05;12.67;;;5.37;;
21843;SDS011;11084;52.482;9.108;2023-02-07T00:58:33;10.70;;;5.17;;
21843;SDS011;11084;52.482;9.108;2023-02-07T01:00:59;8.17;;;4.87;;
21843;SDS011;11084;52.482;9.108;2023-02-07T01:03:25;11.37;;;6.07;;
21843;SDS011;11084;52.482;9.108;2023-02-07T01:05:54;8.67;;;4.87;;
21843;SDS011;11084;52.482;9.108;2023-02-07T01:08:20;14.33;;;5.70;;
21843;SDS011;11084;52.482;9.108;2023-02-07T01:10:46;8.60;;;4.67;;
21843;SDS011;11084;52.482;9.108;2023-02-07T01:13:13;9.60;;;5.10;;
21843;SDS011;11084;52.482;9.108;2023-02-07T01:15:41;18.03;;;5.97;;
21843;SDS011;11084;52.482;9.108;2023-02-07T01:18:11;10.50;;;4.67;;
21843;SDS011;11084;52.482;9.108;2023-02-07T01:20:37;15.57;;;4.97;;
21843;SDS011;11084;52.482;9.108;2023-02-07T01:23:05;11.57;;;5.73;;
21843;SDS011;11084;52.482;9.108;2023-02-07T01:25:31;9.20;;;3.97;;
21843;SDS011;11084;52.482;9.108;2023-02-07T01:27:59;10.63;;;5.27;;
21843;SDS011;11084;52.482;9.108;2023-02-07T01:30:25;8.07;;;5.10;;
21843;SDS011;11084;52.482;9.108;2023-02-07T01:32:51;8.70;;;4.73;;
21843;SDS011;11084;52.482;9.108;2023-02-07T01:35:17;10.03;;;4.57;;
21843;SDS011;11084;52.482;9.108;2023-02-07T01:37:43;11.90;;;5.07;;
21843;SDS011;11084;52.482;9.108;2023-02-07T01:43:59;12.03;;;5.27;;
21843;SDS011;11084;52.482;9.108;2023-02-07T01:46:32;9.60;;;5.47;;
21843;SDS011;11084;52.482;9.108;2023-02-07T01:49:07;9.10;;;4.30;;
21843;SDS011;11084;52.482;9.108;2023-02-07T01:51:36;8.23;;;4.60;;
21843;SDS011;11084;52.482;9.108;2023-02-07T01:54:07;8.27;;;4.40;;
21843;SDS011;11084;52.482;9.108;2023-02-07T01:56:37;7.07;;;4.87;;
21843;SDS011;11084;52.482;9.108;2023-02-07T01:59:19;10.13;;;6.00;;
21843;SDS011;11084;52.482;9.108;2023-02-07T02:01:45;11.27;;;5.23;;
21843;SDS011;11084;52.482;9.108;2023-02-07T02:04:12;7.73;;;5.20;;
21843;SDS011;11084;52.482;9.108;2023-02-07T02:06:38;14.90;;;4.23;;
21843;SDS011;11084;52.482;9.108;2023-02-07T02:09:08;15.77;;;6.63;;
21843;SDS011;11084;52.482;9.108;2023-02-07T02:12:23;8.00;;;4.30;;
21843;SDS011;11084;52.482;9.108;2023-02-07T02:41:30;12.27;;;5.57;;
21843;SDS011;11084;52.482;9.108;2023-02-07T02:44:08;8.60;;;4.27;;
21843;SDS011;11084;52.482;9.108;2023-02-07T02:46:41;10.70;;;5.43;;
21843;SDS011;11084;52.482;9.108;2023-02-07T02:49:10;8.13;;;3.90;;
21843;SDS011;11084;52.482;9.108;2023-02-07T02:51:39;10.23;;;5.40;;
21843;SDS011;11084;52.482;9.108;2023-02-07T02:54:23;8.17;;;4.80;;
21843;SDS011;11084;52.482;9.108;2023-02-07T03:06:13;14.43;;;5.53;;
21843;SDS011;11084;52.482;9.108;2023-02-07T03:11:28;7.97;;;4.30;;
21843;SDS011;11084;52.482;9.108;2023-02-07T03:20:22;15.73;;;5.47;;
21843;SDS011;11084;52.482;9.108;2023-02-07T03:22:55;10.50;;;5.37;;
21843;SDS011;11084;52.482;9.108;2023-02-07T03:25:25;9.43;;;3.60;;
21843;SDS011;11084;52.482;9.108;2023-02-07T03:27:55;14.93;;;4.73;;
21843;SDS011;11084;52.482;9.108;2023-02-07T03:30:21;12.23;;;5.37;;
21843;SDS011;11084;52.482;9.108;2023-02-07T03:32:55;14.47;;;5.33;;
21843;SDS011;11084;52.482;9.108;2023-02-07T03:37:56;9.70;;;5.03;;
21843;SDS011;11084;52.482;9.108;2023-02-07T03:40:26;13.53;;;4.77;;
21843;SDS011;11084;52.482;9.108;2023-02-07T03:42:58;7.00;;;4.27;;
21843;SDS011;11084;52.482;9.108;2023-02-07T03:45:54;10.50;;;5.40;;
21843;SDS011;11084;52.482;9.108;2023-02-07T03:48:21;9.03;;;5.07;;
21843;SDS011;11084;52.482;9.108;2023-02-07T03:50:47;10.90;;;4.87;;
21843;SDS011;11084;52.482;9.108;2023-02-07T03:53:16;14.93;;;5.23;;
21843;SDS011;11084;52.482;9.108;2023-02-07T03:55:43;9.63;;;5.90;;
21843;SDS011;11084;52.482;9.108;2023-02-07T03:58:09;10.30;;;5.00;;
21843;SDS011;11084;52.482;9.108;2023-02-07T04:00:35;9.50;;;5.30;;
21843;SDS011;11084;52.482;9.108;2023-02-07T04:03:02;8.23;;;4.73;;
21843;SDS011;11084;52.482;9.108;2023-02-07T04:05:29;10.67;;;5.93;;
21843;SDS011;11084;52.482;9.108;2023-02-07T04:07:55;7.80;;;5.00;;
21843;SDS011;11084;52.482;9.108;2023-02-07T04:10:21;8.87;;;5.37;;
21843;SDS011;11084;52.482;9.108;2023-02-07T04:12:47;11.23;;;4.93;;
21843;SDS011;11084;52.482;9.108;2023-02-07T04:15:13;10.27;;;4.10;;
21843;SDS011;11084;52.482;9.108;2023-02-07T04:17:39;11.93;;;5.17;;
21843;SDS011;11084;52.482;9.108;2023-02-07T04:20:05;10.00;;;5.40;;
21843;SDS011;11084;52.482;9.108;2023-02-07T04:22:32;10.03;;;5.20;;
21843;SDS011;11084;52.482;9.108;2023-02-07T04:24:59;13.57;;;6.33;;
21843;SDS011;11084;52.482;9.108;2023-02-07T04:27:25;8.37;;;4.60;;
21843;SDS011;11084;52.482;9.108;2023-02-07T04:29:51;11.60;;;6.20;;
21843;SDS011;11084;52.482;9.108;2023-02-07T04:32:17;15.70;;;6.00;;
21843;SDS011;11084;52.482;9.108;2023-02-07T04:34:43;13.83;;;6.73;;
21843;SDS011;11084;52.482;9.108;2023-02-07T04:37:09;11.53;;;5.60;;
21843;SDS011;11084;52.482;9.108;2023-02-07T04:39:35;10.00;;;5.90;;
21843;SDS011;11084;52.482;9.108;2023-02-07T04:42:03;8.83;;;5.03;;
21843;SDS011;11084;52.482;9.108;2023-02-07T04:44:29;11.07;;;4.67;;
21843;SDS011;11084;52.482;9.108;2023-02-07T04:46:56;9.67;;;5.17;;
21843;SDS011;11084;52.482;9.108;2023-02-07T04:49:22;9.73;;;5.27;;
21843;SDS011;11084;52.482;9.108;2023-02-07T04:51:48;12.70;;;5.23;;
21843;SDS011;11084;52.482;9.108;2023-02-07T04:54:13;11.60;;;4.80;;
21843;SDS011;11084;52.482;9.108;2023-02-07T04:56:39;10.50;;;5.23;;
21843;SDS011;11084;52.482;9.108;2023-02-07T04:59:05;5.97;;;3.93;;
21843;SDS011;11084;52.482;9.108;2023-02-07T05:01:31;11.77;;;5.83;;
21843;SDS011;11084;52.482;9.108;2023-02-07T05:03:57;9.27;;;4.43;;
21843;SDS011;11084;52.482;9.108;2023-02-07T05:06:23;8.73;;;5.43;;
21843;SDS011;11084;52.482;9.108;2023-02-07T05:08:49;10.53;;;4.73;;
21843;SDS011;11084;52.482;9.108;2023-02-07T05:11:15;11.67;;;5.73;;
21843;SDS011;11084;52.482;9.108;2023-02-07T05:13:42;11.63;;;5.33;;
21843;SDS011;11084;52.482;9.108;2023-02-07T05:16:08;11.60;;;5.57;;
21843;SDS011;11084;52.482;9.108;2023-02-07T05:18:35;10.30;;;5.47;;
21843;SDS011;11084;52.482;9.108;2023-02-07T05:21:01;11.00;;;5.17;;
21843;SDS011;11084;52.482;9.108;2023-02-07T05:23:27;10.63;;;4.17;;
21843;SDS011;11084;52.482;9.108;2023-02-07T05:25:53;11.90;;;5.73;;
21843;SDS011;11084;52.482;9.108;2023-02-07T05:28:19;10.20;;;5.57;;
21843;SDS011;11084;52.482;9.108;2023-02-07T05:30:45;10.70;;;6.27;;
21843;SDS011;11084;52.482;9.108;2023-02-07T05:33:11;8.43;;;4.30;;
21843;SDS011;11084;52.482;9.108;2023-02-07T05:35:38;7.23;;;4.13;;
21843;SDS011;11084;52.482;9.108;2023-02-07T05:38:08;11.70;;;5.57;;
21843;SDS011;11084;52.482;9.108;2023-02-07T05:40:38;8.83;;;5.13;;
21843;SDS011;11084;52.482;9.108;2023-02-07T05:43:07;6.87;;;4.40;;
21843;SDS011;11084;52.482;9.108;2023-02-07T05:45:35;10.33;;;4.90;;
21843;SDS011;11084;52.482;9.108;2023-02-07T05:48:01;12.30;;;5.87;;
21843;SDS011;11084;52.482;9.108;2023-02-07T05:50:28;8.73;;;4.50;;
21843;SDS011;11084;52.482;9.108;2023-02-07T05:53:03;8.77;;;5.23;;
21843;SDS011;11084;52.482;9.108;2023-02-07T05:55:37;11.07;;;5.83;;
21843;SDS011;11084;52.482;9.108;2023-02-07T05:58:03;10.37;;;5.17;;
21843;SDS011;11084;52.482;9.108;2023-02-07T06:00:29;9.27;;;4.67;;
21843;SDS011;11084;52.482;9.108;2023-02-07T06:02:55;11.07;;;5.73;;
21843;SDS011;11084;52.482;9.108;2023-02-07T06:05:22;9.57;;;4.50;;
21843;SDS011;11084;52.482;9.108;2023-02-07T06:07:49;7.43;;;4.50;;
21843;SDS011;11084;52.482;9.108;2023-02-07T06:10:15;9.03;;;4.60;;
21843;SDS011;11084;52.482;9.108;2023-02-07T06:12:42;11.83;;;5.40;;
21843;SDS011;11084;52.482;9.108;2023-02-07T06:15:08;11.20;;;5.17;;
21843;SDS011;11084;52.482;9.108;2023-02-07T06:17:34;10.67;;;5.20;;
21843;SDS011;11084;52.482;9.108;2023-02-07T06:20:00;11.83;;;5.37;;
21843;SDS011;11084;52.482;9.108;2023-02-07T06:22:26;10.13;;;5.17;;
21843;SDS011;11084;52.482;9.108;2023-02-07T06:24:52;9.67;;;5.57;;
21843;SDS011;11084;52.482;9.108;2023-02-07T06:27:18;7.60;;;5.03;;
21843;SDS011;11084;52.482;9.108;2023-02-07T06:29:45;19.77;;;5.37;;
21843;SDS011;11084;52.482;9.108;2023-02-07T06:32:11;12.77;;;5.70;;
21843;SDS011;11084;52.482;9.108;2023-02-07T06:34:37;10.30;;;5.77;;
21843;SDS011;11084;52.482;9.108;2023-02-07T06:37:03;12.70;;;5.53;;
21843;SDS011;11084;52.482;9.108;2023-02-07T06:39:29;13.27;;;5.83;;
21843;SDS011;11084;52.482;9.108;2023-02-07T06:41:55;9.33;;;5.10;;
21843;SDS011;11084;52.482;9.108;2023-02-07T06:44:20;11.47;;;5.07;;
21843;SDS011;11084;52.482;9.108;2023-02-07T06:46:46;8.20;;;5.17;;
21843;SDS011;11084;52.482;9.108;2023-02-07T06:49:13;7.33;;;5.13;;
21843;SDS011;11084;52.482;9.108;2023-02-07T06:51:39;7.27;;;4.20;;
21843;SDS011;11084;52.482;9.108;2023-02-07T06:54:05;8.83;;;4.17;;
21843;SDS011;11084;52.482;9.108;2023-02-07T06:56:34;15.70;;;6.07;;
21843;SDS011;11084;52.482;9.108;2023-02-07T06:59:01;11.03;;;5.03;;
21843;SDS011;11084;52.482;9.108;2023-02-07T07:01:27;8.93;;;5.73;;
21843;SDS011;11084;52.482;9.108;2023-02-07T07:03:53;8.23;;;5.07;;
21843;SDS011;11084;52.482;9.108;2023-02-07T07:06:19;9.83;;;4.60;;
21843;SDS011;11084;52.482;9.108;2023-02-07T07:08:45;8.40;;;4.60;;
21843;SDS011;11084;52.482;9.108;2023-02-07T07:11:11;10.53;;;5.97;;
21843;SDS011;11084;52.482;9.108;2023-02-07T07:13:37;9.77;;;6.23;;
21843;SDS011;11084;52.482;9.108;2023-02-07T07:16:03;10.23;;;6.03;;
21843;SDS011;11084;52.482;9.108;2023-02-07T07:18:29;12.97;;;7.17;;
21843;SDS011;11084;52.482;9.108;2023-02-07T07:20:55;14.17;;;7.57;;
21843;SDS011;11084;52.482;9.108;2023-02-07T07:23:21;16.07;;;8.70;;
21843;SDS011;11084;52.482;9.108;2023-02-07T07:25:48;20.83;;;10.10;;
21843;SDS011;11084;52.482;9.108;2023-02-07T07:28:14;21.67;;;11.90;;
21843;SDS011;11084;52.482;9.108;2023-02-07T07:30:39;27.30;;;12.93;;
21843;SDS011;11084;52.482;9.108;2023-02-07T07:33:05;24.83;;;11.43;;
21843;SDS011;11084;52.482;9.108;2023-02-07T07:35:32;15.87;;;8.03;;
21843;SDS011;11084;52.482;9.108;2023-02-07T07:37:58;14.93;;;7.17;;
21843;SDS011;11084;52.482;9.108;2023-02-07T07:40:24;10.37;;;6.50;;
21843;SDS011;11084;52.482;9.108;2023-02-07T07:42:50;12.13;;;7.10;;
21843;SDS011;11084;52.482;9.108;2023-02-07T07:45:28;11.33;;;6.73;;
21843;SDS011;11084;52.482;9.108;2023-02-07T07:47:54;12.90;;;7.20;;
21843;SDS011;11084;52.482;9.108;2023-02-07T07:50:20;10.10;;;7.63;;
21843;SDS011;11084;52.482;9.108;2023-02-07T07:52:46;11.40;;;6.97;;
21843;SDS011;11084;52.482;9.108;2023-02-07T07:55:12;11.37;;;7.33;;
21843;SDS011;11084;52.482;9.108;2023-02-07T07:57:39;12.03;;;7.63;;
21843;SDS011;11084;52.482;9.108;2023-02-07T08:00:05;11.47;;;6.93;;
21843;SDS011;11084;52.482;9.108;2023-02-07T08:02:38;9.70;;;6.83;;
21843;SDS011;11084;52.482;9.108;2023-02-07T08:05:05;11.03;;;6.60;;
21843;SDS011;11084;52.482;9.108;2023-02-07T08:07:31;8.67;;;5.43;;
21843;SDS011;11084;52.482;9.108;2023-02-07T08:09:57;9.23;;;5.83;;
21843;SDS011;11084;52.482;9.108;2023-02-07T08:12:24;8.40;;;5.17;;
21843;SDS011;11084;52.482;9.108;2023-02-07T08:14:50;9.47;;;5.40;;
21843;SDS011;11084;52.482;9.108;2023-02-07T08:17:16;10.93;;;5.57;;
21843;SDS011;11084;52.482;9.108;2023-02-07T08:19:42;8.77;;;5.00;;
21843;SDS011;11084;52.482;9.108;2023-02-07T08:22:08;10.57;;;5.47;;
21843;SDS011;11084;52.482;9.108;2023-02-07T08:24:34;10.40;;;6.27;;
21843;SDS011;11084;52.482;9.108;2023-02-07T08:27:01;9.70;;;5.00;;
21843;SDS011;11084;52.482;9.108;2023-02-07T08:29:27;9.67;;;5.20;;
21843;SDS011;11084;52.482;9.108;2023-02-07T08:31:53;8.13;;;5.37;;
21843;SDS011;11084;52.482;9.108;2023-02-07T08:34:19;8.90;;;5.37;;
21843;SDS011;11084;52.482;9.108;2023-02-07T08:36:50;9.60;;;5.87;;
21843;SDS011;11084;52.482;9.108;2023-02-07T08:39:17;9.87;;;5.50;;
21843;SDS011;11084;52.482;9.108;2023-02-07T08:41:43;11.00;;;5.20;;
21843;SDS011;11084;52.482;9.108;2023-02-07T08:44:09;9.03;;;5.47;;
21843;SDS011;11084;52.482;9.108;2023-02-07T08:46:35;7.80;;;5.03;;
21843;SDS011;11084;52.482;9.108;2023-02-07T08:49:01;11.23;;;5.30;;
21843;SDS011;11084;52.482;9.108;2023-02-07T08:51:27;8.90;;;5.57;;
21843;SDS011;11084;52.482;9.108;2023-02-07T08:53:53;11.87;;;6.13;;
21843;SDS011;11084;52.482;9.108;2023-02-07T08:56:19;9.27;;;5.60;;
21843;SDS011;11084;52.482;9.108;2023-02-07T08:58:45;8.43;;;5.07;;
21843;SDS011;11084;52.482;9.108;2023-02-07T09:01:11;9.20;;;5.27;;
21843;SDS011;11084;52.482;9.108;2023-02-07T09:03:37;11.50;;;5.67;;
21843;SDS011;11084;52.482;9.108;2023-02-07T09:06:03;8.97;;;5.53;;
21843;SDS011;11084;52.482;9.108;2023-02-07T09:08:30;8.60;;;5.30;;
21843;SDS011;11084;52.482;9.108;2023-02-07T09:10:56;9.50;;;5.20;;
21843;SDS011;11084;52.482;9.108;2023-02-07T09:13:22;10.07;;;5.47;;
21843;SDS011;11084;52.482;9.108;2023-02-07T09:15:52;9.27;;;5.33;;
21843;SDS011;11084;52.482;9.108;2023-02-07T09:18:20;9.87;;;5.70;;
21843;SDS011;11084;52.482;9.108;2023-02-07T09:20:47;8.57;;;5.27;;
21843;SDS011;11084;52.482;9.108;2023-02-07T09:23:13;9.07;;;5.37;;
21843;SDS011;11084;52.482;9.108;2023-02-07T09:25:41;8.77;;;5.47;;
21843;SDS011;11084;52.482;9.108;2023-02-07T09:28:08;10.27;;;5.63;;
21843;SDS011;11084;52.482;9.108;2023-02-07T09:30:34;12.03;;;5.53;;
21843;SDS011;11084;52.482;9.108;2023-02-07T09:33:00;9.23;;;5.20;;
21843;SDS011;11084;52.482;9.108;2023-02-07T09:35:26;9.63;;;5.30;;
21843;SDS011;11084;52.482;9.108;2023-02-07T09:37:53;14.77;;;5.90;;
21843;SDS011;11084;52.482;9.108;2023-02-07T09:40:20;8.60;;;5.37;;
21843;SDS011;11084;52.482;9.108;2023-02-07T09:42:54;12.27;;;5.90;;
21843;SDS011;11084;52.482;9.108;2023-02-07T09:45:24;10.87;;;5.53;;
21843;SDS011;11084;52.482;9.108;2023-02-07T09:48:00;10.37;;;5.60;;
21843;SDS011;11084;52.482;9.108;2023-02-07T09:50:40;10.57;;;5.80;;
21843;SDS011;11084;52.482;9.108;2023-02-07T09:53:15;8.73;;;5.70;;
21843;SDS011;11084;52.482;9.108;2023-02-07T09:55:58;9.97;;;5.43;;
21843;SDS011;11084;52.482;9.108;2023-02-07T09:58:29;7.77;;;5.03;;
21843;SDS011;11084;52.482;9.108;2023-02-07T10:01:23;12.63;;;6.03;;
21843;SDS011;11084;52.482;9.108;2023-02-07T10:07:03;9.43;;;5.27;;
21843;SDS011;11084;52.482;9.108;2023-02-07T10:09:35;8.10;;;4.67;;
21843;SDS011;11084;52.482;9.108;2023-02-07T10:12:17;9.47;;;5.47;;
21843;SDS011;11084;52.482;9.108;2023-02-07T10:15:25;8.73;;;5.37;;
21843;SDS011;11084;52.482;9.108;2023-02-07T10:18:19;11.03;;;5.50;;
21843;SDS011;11084;52.482;9.108;2023-02-07T10:21:29;9.97;;;5.33;;
21843;SDS011;11084;52.482;9.108;2023-02-07T10:24:19;10.57;;;4.80;;
21843;SDS011;11084;52.482;9.108;2023-02-07T10:27:11;9.13;;;5.27;;
21843;SDS011;11084;52.482;9.108;2023-02-07T10:29:52;10.47;;;4.53;;
21843;SDS011;11084;52.482;9.108;2023-02-07T10:32:25;7.33;;;4.90;;
21843;SDS011;11084;52.482;9.108;2023-02-07T10:35:01;8.00;;;4.53;;
21843;SDS011;11084;52.482;9.108;2023-02-07T10:37:39;7.00;;;4.57;;
21843;SDS011;11084;52.482;9.108;2023-02-07T10:42:54;7.47;;;3.97;;
21843;SDS011;11084;52.482;9.108;2023-02-07T10:45:32;8.50;;;5.67;;
21843;SDS011;11084;52.482;9.108;2023-02-07T10:47:58;7.83;;;4.30;;
21843;SDS011;11084;52.482;9.108;2023-02-07T10:50:25;9.37;;;5.03;;
21843;SDS011;11084;52.482;9.108;2023-02-07T10:52:53;6.63;;;4.40;;
21843;SDS011;11084;52.482;9.108;2023-02-07T10:58:14;6.10;;;4.23;;
21843;SDS011;11084;52.482;9.108;2023-02-07T11:00:43;7.97;;;4.33;;
21843;SDS011;11084;52.482;9.108;2023-02-07T11:03:18;8.13;;;4.47;;
21843;SDS011;11084;52.482;9.108;2023-02-07T11:05:53;9.53;;;5.00;;
21843;SDS011;11084;52.482;9.108;2023-02-07T11:08:24;10.07;;;5.30;;
21843;SDS011;11084;52.482;9.108;2023-02-07T11:10:56;9.87;;;4.90;;
21843;SDS011;11084;52.482;9.108;2023-02-07T11:13:28;8.13;;;4.60;;
21843;SDS011;11084;52.482;9.108;2023-02-07T11:16:00;7.63;;;4.57;;
21843;SDS011;11084;52.482;9.108;2023-02-07T11:21:18;7.57;;;4.20;;
21843;SDS011;11084;52.482;9.108;2023-02-07T11:23:52;7.67;;;4.43;;
21843;SDS011;11084;52.482;9.108;2023-02-07T11:26:23;8.07;;;4.40;;
21843;SDS011;11084;52.482;9.108;2023-02-07T11:28:53;7.43;;;4.73;;
21843;SDS011;11084;52.482;9.108;2023-02-07T11:31:35;8.43;;;4.40;;
21843;SDS011;11084;52.482;9.108;2023-02-07T11:34:06;6.97;;;4.93;;
21843;SDS011;11084;52.482;9.108;2023-02-07T11:36:54;8.63;;;5.03;;
21843;SDS011;11084;52.482;9.108;2023-02-07T11:39:43;9.23;;;5.67;;
21843;SDS011;11084;52.482;9.108;2023-02-07T11:42:11;9.27;;;5.50;;
21843;SDS011;11084;52.482;9.108;2023-02-07T11:45:04;10.37;;;5.63;;
21843;SDS011;11084;52.482;9.108;2023-02-07T11:47:39;9.20;;;5.53;;
21843;SDS011;11084;52.482;9.108;2023-02-07T11:50:15;13.87;;;5.47;;
21843;SDS011;11084;52.482;9.108;2023-02-07T11:52:53;10.20;;;4.30;;
21843;SDS011;11084;52.482;9.108;2023-02-07T11:55:23;7.70;;;4.83;;
21843;SDS011;11084;52.482;9.108;2023-02-07T11:57:57;8.60;;;4.87;;
21843;SDS011;11084;52.482;9.108;2023-02-07T12:00:35;6.83;;;4.73;;
21843;SDS011;11084;52.482;9.108;2023-02-07T12:03:05;8.27;;;4.97;;
21843;SDS011;11084;52.482;9.108;2023-02-07T12:05:47;10.70;;;4.87;;
21843;SDS011;11084;52.482;9.108;2023-02-07T12:08:19;7.07;;;4.80;;
21843;SDS011;11084;52.482;9.108;2023-02-07T12:10:49;8.87;;;5.27;;
21843;SDS011;11084;52.482;9.108;2023-02-07T12:13:25;11.07;;;5.53;;
21843;SDS011;11084;52.482;9.108;2023-02-07T12:21:59;9.40;;;6.37;;
21843;SDS011;11084;52.482;9.108;2023-02-07T12:24:42;9.77;;;5.97;;
21843;SDS011;11084;52.482;9.108;2023-02-07T12:27:19;9.30;;;5.73;;
21843;SDS011;11084;52.482;9.108;2023-02-07T12:56:44;9.33;;;5.20;;
21843;SDS011;11084;52.482;9.108;2023-02-07T13:22:39;9.33;;;5.20;;
21843;SDS011;11084;52.482;9.108;2023-02-07T13:25:12;10.90;;;5.40;;
21843;SDS011;11084;52.482;9.108;2023-02-07T13:27:45;20.37;;;5.57;;
21843;SDS011;11084;52.482;9.108;2023-02-07T13:30:14;12.43;;;6.27;;
21843;SDS011;11084;52.482;9.108;2023-02-07T13:32:41;13.27;;;6.43;;
21843;SDS011;11084;52.482;9.108;2023-02-07T13:35:15;9.90;;;5.17;;
21843;SDS011;11084;52.482;9.108;2023-02-07T13:37:50;8.73;;;4.63;;
21843;SDS011;11084;52.482;9.108;2023-02-07T13:51:56;8.73;;;4.77;;
21843;SDS011;11084;52.482;9.108;2023-02-07T14:00:18;9.10;;;4.13;;
21843;SDS011;11084;52.482;9.108;2023-02-07T14:05:33;6.57;;;4.50;;
21843;SDS011;11084;52.482;9.108;2023-02-07T14:08:05;12.57;;;4.67;;
21843;SDS011;11084;52.482;9.108;2023-02-07T14:10:45;7.13;;;4.20;;
21843;SDS011;11084;52.482;9.108;2023-02-07T14:30:27;11.37;;;5.67;;
21843;SDS011;11084;52.482;9.108;2023-02-07T14:36:36;9.20;;;5.23;;
21843;SDS011;11084;52.482;9.108;2023-02-07T14:41:36;7.23;;;4.23;;
21843;SDS011;11084;52.482;9.108;2023-02-07T14:44:06;7.93;;;4.63;;
21843;SDS011;11084;52.482;9.108;2023-02-07T14:47:07;8.33;;;4.63;;
21843;SDS011;11084;52.482;9.108;2023-02-07T14:49:48;9.93;;;5.47;;
21843;SDS011;11084;52.482;9.108;2023-02-07T14:52:24;12.57;;;5.50;;
21843;SDS011;11084;52.482;9.108;2023-02-07T15:00:23;8.63;;;4.67;;
21843;SDS011;11084;52.482;9.108;2023-02-07T15:03:12;6.27;;;3.97;;
21843;SDS011;11084;52.482;9.108;2023-02-07T15:06:01;7.63;;;4.73;;
21843;SDS011;11084;52.482;9.108;2023-02-07T15:08:38;8.43;;;4.80;;
21843;SDS011;11084;52.482;9.108;2023-02-07T15:11:23;7.10;;;4.13;;
21843;SDS011;11084;52.482;9.108;2023-02-07T15:13:51;9.60;;;5.37;;
21843;SDS011;11084;52.482;9.108;2023-02-07T15:16:23;6.97;;;4.73;;
21843;SDS011;11084;52.482;9.108;2023-02-07T15:18:54;8.53;;;4.93;;
21843;SDS011;11084;52.482;9.108;2023-02-07T15:21:27;9.20;;;4.73;;
21843;SDS011;11084;52.482;9.108;2023-02-07T15:24:07;12.70;;;4.80;;
21843;SDS011;11084;52.482;9.108;2023-02-07T15:27:00;9.67;;;4.27;;
21843;SDS011;11084;52.482;9.108;2023-02-07T15:29:30;10.30;;;4.70;;
21843;SDS011;11084;52.482;9.108;2023-02-07T15:32:11;16.43;;;5.70;;
21843;SDS011;11084;52.482;9.108;2023-02-07T15:34:58;9.20;;;4.93;;
21843;SDS011;11084;52.482;9.108;2023-02-07T15:37:41;13.70;;;5.43;;
21843;SDS011;11084;52.482;9.108;2023-02-07T15:40:13;14.57;;;5.47;;
21843;SDS011;11084;52.482;9.108;2023-02-07T15:42:50;15.83;;;5.80;;
21843;SDS011;11084;52.482;9.108;2023-02-07T15:45:23;9.40;;;5.17;;
21843;SDS011;11084;52.482;9.108;2023-02-07T15:47:57;12.07;;;5.27;;
21843;SDS011;11084;52.482;9.108;2023-02-07T15:50:26;11.73;;;5.27;;
21843;SDS011;11084;52.482;9.108;2023-02-07T15:52:58;10.20;;;5.47;;
21843;SDS011;11084;52.482;9.108;2023-02-07T15:58:43;9.70;;;5.17;;
21843;SDS011;11084;52.482;9.108;2023-02-07T16:01:04;8.93;;;5.07;;
21843;SDS011;11084;52.482;9.108;2023-02-07T16:03:45;10.57;;;6.27;;
21843;SDS011;11084;52.482;9.108;2023-02-07T16:06:19;8.77;;;5.43;;
21843;SDS011;11084;52.482;9.108;2023-02-07T16:08:48;10.57;;;5.23;;
21843;SDS011;11084;52.482;9.108;2023-02-07T16:16:25;10.63;;;5.30;;
21843;SDS011;11084;52.482;9.108;2023-02-07T16:19:06;16.87;;;5.80;;
21843;SDS011;11084;52.482;9.108;2023-02-07T16:21:51;13.13;;;5.30;;
21843;SDS011;11084;52.482;9.108;2023-02-07T16:24:32;16.90;;;5.50;;
21843;SDS011;11084;52.482;9.108;2023-02-07T16:27:01;9.53;;;4.87;;
21843;SDS011;11084;52.482;9.108;2023-02-07T16:29:28;10.53;;;6.07;;
21843;SDS011;11084;52.482;9.108;2023-02-07T16:31:54;21.30;;;6.20;;
21843;SDS011;11084;52.482;9.108;2023-02-07T16:34:21;14.53;;;6.33;;
21843;SDS011;11084;52.482;9.108;2023-02-07T16:36:51;11.73;;;6.23;;
21843;SDS011;11084;52.482;9.108;2023-02-07T16:39:19;14.87;;;5.77;;
21843;SDS011;11084;52.482;9.108;2023-02-07T16:41:51;12.27;;;6.10;;
21843;SDS011;11084;52.482;9.108;2023-02-07T16:44:28;13.53;;;5.57;;
21843;SDS011;11084;52.482;9.108;2023-02-07T16:46:58;10.33;;;5.47;;
21843;SDS011;11084;52.482;9.108;2023-02-07T16:49:26;8.30;;;4.90;;
21843;SDS011;11084;52.482;9.108;2023-02-07T16:51:54;11.00;;;5.90;;
21843;SDS011;11084;52.482;9.108;2023-02-07T16:54:20;11.47;;;5.47;;
21843;SDS011;11084;52.482;9.108;2023-02-07T16:56:54;11.60;;;5.40;;
21843;SDS011;11084;52.482;9.108;2023-02-07T16:59:23;9.93;;;5.53;;
21843;SDS011;11084;52.482;9.108;2023-02-07T17:01:50;8.50;;;5.40;;
21843;SDS011;11084;52.482;9.108;2023-02-07T17:04:18;12.03;;;5.43;;
21843;SDS011;11084;52.482;9.108;2023-02-07T17:06:45;11.83;;;6.00;;
21843;SDS011;11084;52.482;9.108;2023-02-07T17:09:17;12.33;;;6.83;;
21843;SDS011;11084;52.482;9.108;2023-02-07T17:11:48;8.90;;;5.20;;
21843;SDS011;11084;52.482;9.108;2023-02-07T17:14:16;11.73;;;5.70;;
21843;SDS011;11084;52.482;9.108;2023-02-07T17:16:42;10.67;;;5.80;;
21843;SDS011;11084;52.482;9.108;2023-02-07T17:19:10;15.50;;;5.80;;
21843;SDS011;11084;52.482;9.108;2023-02-07T17:21:47;13.87;;;6.43;;
21843;SDS011;11084;52.482;9.108;2023-02-07T17:24:15;9.87;;;5.83;;
21843;SDS011;11084;52.482;9.108;2023-02-07T17:26:43;12.03;;;6.43;;
21843;SDS011;11084;52.482;9.108;2023-02-07T17:29:12;14.30;;;6.43;;
21843;SDS011;11084;52.482;9.108;2023-02-07T17:31:40;13.47;;;6.87;;
21843;SDS011;11084;52.482;9.108;2023-02-07T17:34:06;14.20;;;6.00;;
21843;SDS011;11084;52.482;9.108;2023-02-07T17:36:33;14.37;;;7.53;;
21843;SDS011;11084;52.482;9.108;2023-02-07T17:39:00;11.43;;;5.93;;
21843;SDS011;11084;52.482;9.108;2023-02-07T17:41:27;14.27;;;6.67;;
21843;SDS011;11084;52.482;9.108;2023-02-07T17:43:54;14.60;;;6.33;;
21843;SDS011;11084;52.482;9.108;2023-02-07T17:46:21;12.00;;;6.43;;
21843;SDS011;11084;52.482;9.108;2023-02-07T17:48:50;9.53;;;5.53;;
21843;SDS011;11084;52.482;9.108;2023-02-07T17:51:19;10.40;;;5.67;;
21843;SDS011;11084;52.482;9.108;2023-02-07T17:53:47;9.80;;;5.83;;
21843;SDS011;11084;52.482;9.108;2023-02-07T17:56:24;12.47;;;5.83;;